createdAt,value
2023-04-10T00:02:27.299Z,13.52
2023-04-10T00:04:54.423Z,11.98
2023-04-10T00:07:21.683Z,11.75
2023-04-10T00:09:48.706Z,12.55
2023-04-10T00:12:16.137Z,9.77
2023-04-10T00:14:43.217Z,12.23
2023-04-10T00:17:12.429Z,12.60
2023-04-10T00:19:39.349Z,14.93
2023-04-10T00:22:06.365Z,13.50
2023-04-10T00:24:36.323Z,11.93
2023-04-10T00:27:05.891Z,12.55
2023-04-10T00:29:32.869Z,13.32
2023-04-10T00:32:01.114Z,11.82
2023-04-10T00:34:30.076Z,11.82
2023-04-10T00:36:56.856Z,11.02
2023-04-10T00:39:23.827Z,11.98
2023-04-10T00:41:51.115Z,13.43
2023-04-10T00:44:18.033Z,12.00
2023-04-10T00:46:45.144Z,11.32
2023-04-10T00:49:12.205Z,13.15
2023-04-10T00:51:42.123Z,11.18
2023-04-10T00:54:10.715Z,11.38
2023-04-10T00:56:38.130Z,10.85
2023-04-10T00:59:07.512Z,11.95
2023-04-10T01:01:36.768Z,11.00
2023-04-10T01:04:06.110Z,12.25
2023-04-10T01:07:00.811Z,12.43
2023-04-10T01:10:12.878Z,14.70
2023-04-10T01:12:48.691Z,10.48
2023-04-10T01:15:27.242Z,11.85
2023-04-10T01:18:13.959Z,11.85
2023-04-10T01:20:42.345Z,12.60
2023-04-10T01:23:53.474Z,12.48
2023-04-10T01:26:37.167Z,12.45
2023-04-10T01:29:10.094Z,12.40
2023-04-10T01:31:42.653Z,12.43
2023-04-10T01:34:20.205Z,10.20
2023-04-10T01:37:01.373Z,10.65
2023-04-10T01:39:30.840Z,10.73
2023-04-10T01:42:00.167Z,10.88
2023-04-10T01:44:30.549Z,10.50
2023-04-10T01:46:58.968Z,10.75
2023-04-10T01:49:32.975Z,10.90
2023-04-10T01:52:03.812Z,9.93
2023-04-10T01:54:36.826Z,10.38
2023-04-10T01:57:04.864Z,11.90
2023-04-10T01:59:34.165Z,9.00
2023-04-10T02:02:01.856Z,10.45
2023-04-10T02:04:28.910Z,9.80
2023-04-10T02:07:06.836Z,10.70
2023-04-10T02:10:07.252Z,10.68
2023-04-10T02:12:41.825Z,9.27
2023-04-10T02:15:10.598Z,9.48
2023-04-10T02:17:40.002Z,9.77
2023-04-10T02:20:09.216Z,9.95
2023-04-10T02:22:37.551Z,9.43
2023-04-10T02:25:06.249Z,10.15
2023-04-10T02:27:37.575Z,10.68
2023-04-10T02:30:05.543Z,11.02
2023-04-10T02:32:37.247Z,17.52
2023-04-10T02:35:07.665Z,11.70
2023-04-10T02:37:36.373Z,10.38
2023-04-10T02:40:03.493Z,9.18
2023-04-10T02:42:30.592Z,10.85
2023-04-10T02:44:57.741Z,9.50
2023-04-10T02:47:24.804Z,9.40
2023-04-10T02:49:51.966Z,9.65
2023-04-10T02:52:18.928Z,9.82
2023-04-10T02:54:46.475Z,11.02
2023-04-10T02:57:15.687Z,12.38
2023-04-10T02:59:42.624Z,9.95
2023-04-10T03:02:14.515Z,10.80
2023-04-10T03:04:41.471Z,10.52
2023-04-10T03:07:08.186Z,11.18
2023-04-10T03:09:35.211Z,9.80
2023-04-10T03:12:02.657Z,11.23
2023-04-10T03:14:32.182Z,11.43
2023-04-10T03:16:58.932Z,11.98
2023-04-10T03:19:28.181Z,11.88
2023-04-10T03:21:55.123Z,12.55
2023-04-10T03:24:21.966Z,10.77
2023-04-10T03:26:48.701Z,10.70
2023-04-10T03:29:19.295Z,11.70
2023-04-10T03:31:46.219Z,11.45
2023-04-10T03:34:13.039Z,12.45
2023-04-10T03:36:39.833Z,12.65
2023-04-10T03:39:06.823Z,12.10
2023-04-10T03:41:36.401Z,11.38
2023-04-10T03:44:04.056Z,11.77
2023-04-10T03:46:30.979Z,11.90
2023-04-10T03:48:57.878Z,11.93
2023-04-10T03:51:27.727Z,12.00
2023-04-10T03:53:57.036Z,11.02
2023-04-10T03:56:23.876Z,11.75
2023-04-10T03:58:50.952Z,11.13
2023-04-10T04:01:17.929Z,10.90
2023-04-10T04:03:50.707Z,11.70
2023-04-10T04:06:17.762Z,12.13
2023-04-10T04:08:49.480Z,12.00
2023-04-10T04:11:21.035Z,11.20
2023-04-10T04:13:53.101Z,12.52
2023-04-10T04:16:22.939Z,11.50
2023-04-10T04:18:50.009Z,12.52
2023-04-10T04:21:16.950Z,13.00
2023-04-10T04:23:44.773Z,12.00
2023-04-10T04:26:14.772Z,14.65
2023-04-10T04:28:41.721Z,14.63
2023-04-10T04:31:11.262Z,12.18
2023-04-10T04:33:38.125Z,12.18
2023-04-10T04:36:07.783Z,14.88
2023-04-10T04:38:34.613Z,13.55
2023-04-10T04:41:01.552Z,15.52
2023-04-10T04:43:28.539Z,11.48
2023-04-10T04:45:55.263Z,12.60
2023-04-10T04:48:24.375Z,12.68
2023-04-10T04:50:51.016Z,12.57
2023-04-10T04:53:17.706Z,11.90
2023-04-10T04:55:44.412Z,11.85
2023-04-10T04:58:11.185Z,12.63
2023-04-10T05:00:37.865Z,11.90
2023-04-10T05:03:06.896Z,12.45
2023-04-10T05:05:34.475Z,11.23
2023-04-10T05:08:01.653Z,11.30
2023-04-10T05:10:28.872Z,13.27
2023-04-10T05:12:58.201Z,11.82
2023-04-10T05:15:32.961Z,11.25
2023-04-10T05:18:02.626Z,11.52
2023-04-10T05:20:34.903Z,11.45
2023-04-10T05:23:05.693Z,14.32
2023-04-10T05:25:32.566Z,11.43
2023-04-10T05:28:01.939Z,11.77
2023-04-10T05:30:30.248Z,11.18
2023-04-10T05:33:00.018Z,11.02
2023-04-10T05:35:26.774Z,11.45
2023-04-10T05:37:53.774Z,10.93
2023-04-10T05:40:24.062Z,11.02
2023-04-10T05:42:51.226Z,13.15
2023-04-10T05:45:18.762Z,10.70
2023-04-10T05:47:48.135Z,11.75
2023-04-10T05:50:18.293Z,11.00
2023-04-10T05:52:46.886Z,11.50
2023-04-10T05:55:13.729Z,11.70
2023-04-10T05:57:40.842Z,12.85
2023-04-10T06:00:09.496Z,13.90
2023-04-10T06:02:41.866Z,10.93
2023-04-10T06:05:09.200Z,13.95
2023-04-10T06:07:36.264Z,11.23
2023-04-10T06:10:03.244Z,10.63
2023-04-10T06:12:30.178Z,11.45
2023-04-10T06:14:56.840Z,10.85
2023-04-10T06:17:25.858Z,12.40
2023-04-10T06:19:52.755Z,11.65
2023-04-10T06:22:21.655Z,10.93
2023-04-10T06:24:51.819Z,11.95
2023-04-10T06:27:18.647Z,10.75
2023-04-10T06:30:03.877Z,13.10
2023-04-10T06:32:30.936Z,11.27
2023-04-10T06:34:57.875Z,11.13
2023-04-10T06:37:31.755Z,10.95
2023-04-10T06:40:07.315Z,11.43
2023-04-10T06:42:35.904Z,11.82
2023-04-10T06:45:06.487Z,12.20
2023-04-10T06:47:33.400Z,13.45
2023-04-10T06:50:04.961Z,9.57
2023-04-10T06:52:32.519Z,11.50
2023-04-10T06:55:01.800Z,10.57
2023-04-10T06:57:28.997Z,10.10
2023-04-10T06:59:57.048Z,12.23
2023-04-10T07:02:24.072Z,13.52
2023-04-10T07:04:53.937Z,10.32
2023-04-10T07:07:20.825Z,10.02
2023-04-10T07:09:47.949Z,10.70
2023-04-10T07:12:14.637Z,11.13
2023-04-10T07:14:44.437Z,10.75
2023-04-10T07:17:13.714Z,9.77
2023-04-10T07:19:42.805Z,9.88
2023-04-10T07:22:09.724Z,10.52
2023-04-10T07:24:38.847Z,9.18
2023-04-10T07:27:05.616Z,9.60
2023-04-10T07:29:32.378Z,9.93
2023-04-10T07:31:59.288Z,10.38
2023-04-10T07:34:26.332Z,10.85
2023-04-10T07:36:53.457Z,8.65
2023-04-10T07:39:20.280Z,10.20
2023-04-10T07:41:47.175Z,9.13
2023-04-10T07:44:14.633Z,12.20
2023-04-10T07:46:41.815Z,9.60
2023-04-10T07:49:08.983Z,10.93
2023-04-10T07:51:36.353Z,11.32
2023-04-10T07:54:04.528Z,11.18
2023-04-10T07:56:33.826Z,11.80
2023-04-10T07:59:03.864Z,12.32
2023-04-10T08:01:30.937Z,10.25
2023-04-10T08:03:58.070Z,11.40
2023-04-10T08:06:27.931Z,10.43
2023-04-10T08:08:55.218Z,8.82
2023-04-10T08:11:29.420Z,9.20
2023-04-10T08:14:02.068Z,9.50
2023-04-10T08:16:30.972Z,8.48
2023-04-10T08:18:58.762Z,10.60
2023-04-10T08:21:29.948Z,8.90
2023-04-10T08:23:58.487Z,9.10
2023-04-10T08:26:27.929Z,8.23
2023-04-10T08:28:58.652Z,9.05
2023-04-10T08:31:27.675Z,8.23
2023-04-10T08:34:14.454Z,8.13
2023-04-10T08:36:45.299Z,8.20
2023-04-10T08:39:14.691Z,10.95
2023-04-10T08:41:41.710Z,8.07
2023-04-10T08:44:10.236Z,8.98
2023-04-10T08:46:40.685Z,13.82
2023-04-10T08:49:20.073Z,10.15
2023-04-10T08:51:57.791Z,11.30
2023-04-10T08:54:36.591Z,10.15
2023-04-10T08:57:09.184Z,12.85
2023-04-10T08:59:40.248Z,10.60
2023-04-10T09:02:10.601Z,10.93
2023-04-10T09:04:38.001Z,8.95
2023-04-10T09:07:09.678Z,10.07
2023-04-10T09:09:36.894Z,10.02
2023-04-10T09:12:04.146Z,10.32
2023-04-10T09:14:35.280Z,9.88
2023-04-10T09:17:15.838Z,9.27
2023-04-10T09:19:47.279Z,11.90
2023-04-10T09:22:14.461Z,11.90
2023-04-10T09:24:44.473Z,8.75
2023-04-10T09:27:27.905Z,9.50
2023-04-10T09:29:55.528Z,11.77
2023-04-10T09:32:45.359Z,8.98
2023-04-10T09:35:16.854Z,10.07
2023-04-10T09:37:47.020Z,8.50
2023-04-10T09:40:25.521Z,9.98
2023-04-10T09:42:53.559Z,11.15
2023-04-10T09:45:22.547Z,10.43
2023-04-10T09:48:07.373Z,7.53
2023-04-10T09:50:40.407Z,11.25
2023-04-10T09:53:09.289Z,10.77
2023-04-10T09:55:38.091Z,9.38
2023-04-10T09:58:06.157Z,7.28
2023-04-10T10:00:40.010Z,10.30
2023-04-10T10:03:10.551Z,12.93
2023-04-10T10:05:43.097Z,10.73
2023-04-10T10:08:11.247Z,11.02
2023-04-10T10:10:46.064Z,8.85
2023-04-10T10:13:22.834Z,7.45
2023-04-10T10:15:54.962Z,8.18
2023-04-10T10:18:25.483Z,7.75
2023-04-10T10:20:55.846Z,13.30
2023-04-10T10:23:23.651Z,9.02
2023-04-10T10:25:51.334Z,11.18
2023-04-10T10:28:19.176Z,6.72
2023-04-10T10:30:49.849Z,7.13
2023-04-10T10:33:21.837Z,7.18
2023-04-10T10:35:50.206Z,8.65
2023-04-10T10:38:18.765Z,8.30
2023-04-10T10:40:51.905Z,8.50
2023-04-10T10:43:38.199Z,7.68
2023-04-10T10:46:09.580Z,8.13
2023-04-10T10:48:36.234Z,7.18
2023-04-10T10:51:04.063Z,6.35
2023-04-10T10:53:31.989Z,8.32
2023-04-10T10:55:58.601Z,5.78
2023-04-10T10:58:50.303Z,6.68
2023-04-10T11:01:20.309Z,6.65
2023-04-10T11:03:48.353Z,6.65
2023-04-10T11:06:19.890Z,5.18
2023-04-10T11:08:49.400Z,8.27
2023-04-10T11:11:24.580Z,6.72
2023-04-10T11:13:58.103Z,6.03
2023-04-10T11:16:47.278Z,5.50
2023-04-10T11:19:19.941Z,5.00
2023-04-10T11:22:04.775Z,5.50
2023-04-10T11:25:00.997Z,5.43
2023-04-10T11:27:54.709Z,5.10
2023-04-10T11:30:36.723Z,5.90
2023-04-10T11:33:05.898Z,4.78
2023-04-10T11:35:34.673Z,5.25
2023-04-10T11:38:11.240Z,4.28
2023-04-10T11:40:56.651Z,3.97
2023-04-10T11:43:24.598Z,5.28
2023-04-10T11:45:59.624Z,6.03
2023-04-10T11:48:28.991Z,4.63
2023-04-10T11:50:57.358Z,5.57
2023-04-10T11:53:30.610Z,3.97
2023-04-10T11:56:00.828Z,4.95
2023-04-10T11:58:30.965Z,4.32
2023-04-10T12:01:04.414Z,5.00
2023-04-10T12:03:47.149Z,6.70
2023-04-10T12:06:16.107Z,5.05
2023-04-10T12:08:50.038Z,7.20
2023-04-10T12:11:26.337Z,4.70
2023-04-10T12:13:58.662Z,3.65
2023-04-10T12:16:27.711Z,3.20
2023-04-10T12:18:56.287Z,5.35
2023-04-10T12:21:24.116Z,5.40
2023-04-10T12:23:54.303Z,4.00
2023-04-10T12:26:24.721Z,4.35
2023-04-10T12:28:55.525Z,5.85
2023-04-10T12:31:37.666Z,6.30
2023-04-10T12:34:05.584Z,4.10
2023-04-10T12:36:34.892Z,6.25
2023-04-10T12:39:03.633Z,4.78
2023-04-10T12:41:34.241Z,4.47
2023-04-10T12:44:14.075Z,3.55
2023-04-10T12:46:45.956Z,3.40
2023-04-10T12:49:17.207Z,4.10
2023-04-10T12:51:49.887Z,4.00
2023-04-10T12:54:34.227Z,4.47
2023-04-10T12:57:02.394Z,6.63
2023-04-10T12:59:30.322Z,3.78
2023-04-10T13:01:57.142Z,3.35
2023-04-10T13:04:24.060Z,4.18
2023-04-10T13:06:56.475Z,8.90
2023-04-10T13:09:23.151Z,3.25
2023-04-10T13:11:52.114Z,3.17
2023-04-10T13:14:18.796Z,3.58
2023-04-10T13:16:47.597Z,4.38
2023-04-10T13:19:16.567Z,3.17
2023-04-10T13:21:43.125Z,5.15
2023-04-10T13:24:12.604Z,5.90
2023-04-10T13:26:42.610Z,2.97
2023-04-10T13:29:09.181Z,4.05
2023-04-10T13:31:35.867Z,3.83
2023-04-10T13:34:05.783Z,6.68
2023-04-10T13:36:32.489Z,3.38
2023-04-10T13:38:59.130Z,3.65
2023-04-10T13:41:25.757Z,5.57
2023-04-10T13:43:55.980Z,4.53
2023-04-10T13:46:22.915Z,4.15
2023-04-10T13:48:49.502Z,7.22
2023-04-10T13:51:16.051Z,3.92
2023-04-10T13:53:42.644Z,3.95
2023-04-10T13:56:12.039Z,4.00
2023-04-10T13:58:45.498Z,6.28
2023-04-10T14:01:14.603Z,3.05
2023-04-10T14:03:43.686Z,4.20
2023-04-10T14:06:10.350Z,3.45
2023-04-10T14:08:39.075Z,3.30
2023-04-10T14:11:06.021Z,5.32
2023-04-10T14:13:32.885Z,3.88
2023-04-10T14:16:01.737Z,3.72
2023-04-10T14:18:28.412Z,4.90
2023-04-10T14:20:55.096Z,4.18
2023-04-10T14:23:23.055Z,3.70
2023-04-10T14:25:52.207Z,4.30
2023-04-10T14:28:21.358Z,4.70
2023-04-10T14:30:50.675Z,5.75
2023-04-10T14:33:24.370Z,5.18
2023-04-10T14:35:53.094Z,3.58
2023-04-10T14:38:19.706Z,5.25
2023-04-10T14:40:52.132Z,4.82
2023-04-10T14:43:20.945Z,3.95
2023-04-10T14:45:52.071Z,2.63
2023-04-10T14:48:19.965Z,5.10
2023-04-10T14:50:49.722Z,5.88
2023-04-10T14:53:16.817Z,3.70
2023-04-10T14:55:48.772Z,4.93
2023-04-10T14:58:15.607Z,4.53
2023-04-10T15:00:43.727Z,5.22
2023-04-10T15:03:13.438Z,2.83
2023-04-10T15:05:42.542Z,5.63
2023-04-10T15:08:09.235Z,5.57
2023-04-10T15:10:38.371Z,3.58
2023-04-10T15:13:06.093Z,3.40
2023-04-10T15:15:32.681Z,3.72
2023-04-10T15:17:59.342Z,3.63
2023-04-10T15:20:26.037Z,2.80
2023-04-10T15:22:52.947Z,3.42
2023-04-10T15:25:19.863Z,3.45
2023-04-10T15:27:46.548Z,4.75
2023-04-10T15:30:13.234Z,4.38
2023-04-10T15:32:39.841Z,6.57
2023-04-10T15:35:09.152Z,4.95
2023-04-10T15:37:36.731Z,7.90
2023-04-10T15:40:04.723Z,5.18
2023-04-10T15:42:31.313Z,4.60
2023-04-10T15:44:57.988Z,3.53
2023-04-10T15:47:24.785Z,5.55
2023-04-10T15:49:51.413Z,3.40
2023-04-10T15:52:18.116Z,3.67
2023-04-10T15:54:44.699Z,3.67
2023-04-10T15:57:11.203Z,3.47
2023-04-10T15:59:37.814Z,3.45
2023-04-10T16:02:06.924Z,5.65
2023-04-10T16:04:35.175Z,3.67
2023-04-10T16:07:01.970Z,4.95
2023-04-10T16:09:31.171Z,3.72
2023-04-10T16:11:58.098Z,3.30
2023-04-10T16:14:24.859Z,4.22
2023-04-10T16:16:51.425Z,2.90
2023-04-10T16:19:30.544Z,4.15
2023-04-10T16:21:57.380Z,4.20
2023-04-10T16:24:24.046Z,3.72
2023-04-10T16:26:50.744Z,4.78
2023-04-10T16:29:19.838Z,5.78
2023-04-10T16:31:46.540Z,6.32
2023-04-10T16:34:13.263Z,3.88
2023-04-10T16:36:42.133Z,5.07
2023-04-10T16:39:08.880Z,4.30
2023-04-10T16:41:35.506Z,5.13
2023-04-10T16:44:04.557Z,6.00
2023-04-10T16:46:33.167Z,6.30
2023-04-10T16:49:02.928Z,9.20
2023-04-10T16:51:31.935Z,6.40
2023-04-10T16:54:00.754Z,5.63
2023-04-10T16:56:27.375Z,7.15
2023-04-10T16:58:54.244Z,5.15
2023-04-10T17:01:26.466Z,9.23
2023-04-10T17:03:54.558Z,8.07
2023-04-10T17:06:21.307Z,3.78
2023-04-10T17:08:48.200Z,5.25
2023-04-10T17:11:14.923Z,7.35
2023-04-10T17:13:42.164Z,5.07
2023-04-10T17:16:09.561Z,4.63
2023-04-10T17:18:36.277Z,5.43
2023-04-10T17:21:05.523Z,5.03
2023-04-10T17:23:32.305Z,7.38
2023-04-10T17:25:59.048Z,4.65
2023-04-10T17:28:26.109Z,6.32
2023-04-10T17:30:52.742Z,6.60
2023-04-10T17:33:21.866Z,4.80
2023-04-10T17:35:51.195Z,5.28
2023-04-10T17:38:18.244Z,9.00
2023-04-10T17:40:44.856Z,5.82
2023-04-10T17:43:11.450Z,6.75
2023-04-10T17:45:41.488Z,5.38
2023-04-10T17:48:08.824Z,6.00
2023-04-10T17:50:35.782Z,6.43
2023-04-10T17:53:02.483Z,6.78
2023-04-10T17:55:29.189Z,6.30
2023-04-10T17:58:00.396Z,5.93
2023-04-10T18:00:27.030Z,6.97
2023-04-10T18:03:00.868Z,5.47
2023-04-10T18:05:32.158Z,5.45
2023-04-10T18:08:00.968Z,5.22
2023-04-10T18:10:27.570Z,6.43
2023-04-10T18:12:58.581Z,6.07
2023-04-10T18:15:25.965Z,4.95
2023-04-10T18:17:52.616Z,4.93
2023-04-10T18:20:20.867Z,4.70
2023-04-10T18:22:50.488Z,5.10
2023-04-10T18:25:20.099Z,5.07
2023-04-10T18:28:09.577Z,6.20
2023-04-10T18:30:39.106Z,6.10
2023-04-10T18:33:09.977Z,5.13
2023-04-10T18:35:37.902Z,4.70
2023-04-10T18:38:09.236Z,5.45
2023-04-10T18:40:36.905Z,5.00
2023-04-10T18:43:06.089Z,6.80
2023-04-10T18:45:37.453Z,4.65
2023-04-10T18:48:04.226Z,4.72
2023-04-10T18:50:36.912Z,6.70
2023-04-10T18:53:05.723Z,4.18
2023-04-10T18:55:34.724Z,5.78
2023-04-10T18:58:01.520Z,6.07
2023-04-10T19:00:28.217Z,5.10
2023-04-10T19:02:55.670Z,5.78
2023-04-10T19:05:22.552Z,4.55
2023-04-10T19:08:00.548Z,4.45
2023-04-10T19:10:32.279Z,6.28
2023-04-10T19:13:01.309Z,4.90
2023-04-10T19:15:30.122Z,4.20
2023-04-10T19:17:56.970Z,4.53
2023-04-10T19:20:48.933Z,5.70
2023-04-10T19:23:11.216Z,4.07
2023-04-10T19:25:38.031Z,4.78
2023-04-10T19:28:04.674Z,3.25
2023-04-10T19:30:31.301Z,3.75
2023-04-10T19:33:00.542Z,4.72
2023-04-10T19:35:27.274Z,3.80
2023-04-10T19:37:57.805Z,5.05
2023-04-10T19:40:26.779Z,4.03
2023-04-10T19:42:53.566Z,3.55
2023-04-10T19:45:27.266Z,7.03
2023-04-10T19:47:56.282Z,4.80
2023-04-10T19:50:23.067Z,3.28
2023-04-10T19:52:49.865Z,4.88
2023-04-10T19:55:18.757Z,4.53
2023-04-10T19:57:46.044Z,5.80
2023-04-10T20:00:13.165Z,4.50
2023-04-10T20:02:40.349Z,4.18
2023-04-10T20:05:07.602Z,6.95
2023-04-10T20:07:34.208Z,4.22
2023-04-10T20:10:03.511Z,4.00
2023-04-10T20:12:33.182Z,4.05
2023-04-10T20:15:00.736Z,4.68
2023-04-10T20:17:28.008Z,4.25
2023-04-10T20:19:57.757Z,9.80
2023-04-10T20:22:24.578Z,4.80
2023-04-10T20:24:53.659Z,5.80
2023-04-10T20:27:20.598Z,7.13
2023-04-10T20:29:49.866Z,7.55
2023-04-10T20:32:19.184Z,5.68
2023-04-10T20:34:48.406Z,6.43
2023-04-10T20:37:18.783Z,3.78
2023-04-10T20:39:48.597Z,8.68
2023-04-10T20:42:17.081Z,6.65
2023-04-10T20:44:44.022Z,6.70
2023-04-10T20:47:11.043Z,10.32
2023-04-10T20:49:38.357Z,9.60
2023-04-10T20:52:06.234Z,3.88
2023-04-10T20:54:33.649Z,9.98
2023-04-10T20:57:06.222Z,7.63
2023-04-10T20:59:33.369Z,10.68
2023-04-10T21:02:00.256Z,7.95
2023-04-10T21:04:27.049Z,8.50
2023-04-10T21:06:53.795Z,6.82
2023-04-10T21:09:20.962Z,12.25
2023-04-10T21:11:47.634Z,11.10
2023-04-10T21:14:14.473Z,7.43
2023-04-10T21:16:42.786Z,9.25
2023-04-10T21:19:09.699Z,9.38
2023-04-10T21:21:36.430Z,9.70
2023-04-10T21:24:03.516Z,8.80
2023-04-10T21:26:30.284Z,10.50
2023-04-10T21:29:01.923Z,9.75
2023-04-10T21:31:28.776Z,7.28
2023-04-10T21:33:55.616Z,8.35
2023-04-10T21:36:22.389Z,10.05
2023-04-10T21:38:49.097Z,10.23
2023-04-10T21:41:15.869Z,9.32
2023-04-10T21:43:44.913Z,6.85
2023-04-10T21:46:12.034Z,14.55
2023-04-10T21:48:39.209Z,9.93
2023-04-10T21:51:08.683Z,8.07
2023-04-10T21:53:35.344Z,10.23
2023-04-10T21:56:08.168Z,12.52
2023-04-10T21:58:39.863Z,10.18
2023-04-10T22:01:08.375Z,8.25
2023-04-10T22:03:38.538Z,13.02
2023-04-10T22:06:05.450Z,11.30
2023-04-10T22:08:34.729Z,16.40
2023-04-10T22:11:01.578Z,11.10
2023-04-10T22:13:31.128Z,12.02
2023-04-10T22:15:58.848Z,11.57
2023-04-10T22:18:25.874Z,16.42
2023-04-10T22:20:52.878Z,19.88
2023-04-10T22:23:19.642Z,11.32
2023-04-10T22:25:48.739Z,17.23
2023-04-10T22:28:15.916Z,12.15
2023-04-10T22:30:42.622Z,12.82
2023-04-10T22:33:14.315Z,16.48
2023-04-10T22:35:41.083Z,12.13
2023-04-10T22:38:07.920Z,12.00
2023-04-10T22:40:34.720Z,15.80
2023-04-10T22:43:01.709Z,10.02
2023-04-10T22:45:28.640Z,10.63
2023-04-10T22:47:55.847Z,18.30
2023-04-10T22:50:22.685Z,17.02
2023-04-10T22:52:49.575Z,15.18
2023-04-10T22:55:16.532Z,14.65
2023-04-10T22:57:47.653Z,14.82
2023-04-10T23:00:15.020Z,19.75
2023-04-10T23:02:41.986Z,17.45
2023-04-10T23:05:09.341Z,15.25
2023-04-10T23:07:36.071Z,14.98
2023-04-10T23:10:02.963Z,20.90
2023-04-10T23:12:32.151Z,19.23
2023-04-10T23:15:01.308Z,9.68
2023-04-10T23:17:28.210Z,14.60
2023-04-10T23:19:57.339Z,20.42
2023-04-10T23:22:24.126Z,13.48
2023-04-10T23:24:54.851Z,12.80
2023-04-10T23:27:21.765Z,20.42
2023-04-10T23:29:51.844Z,16.48
2023-04-10T23:32:18.514Z,20.23
2023-04-10T23:34:46.387Z,16.70
2023-04-10T23:37:13.169Z,22.10
2023-04-10T23:39:39.997Z,19.40
2023-04-10T23:42:06.871Z,23.20
2023-04-10T23:44:33.542Z,19.98
2023-04-10T23:47:00.328Z,17.73
2023-04-10T23:49:27.197Z,23.60
2023-04-10T23:51:54.015Z,24.63
2023-04-10T23:54:23.038Z,29.13
2023-04-10T23:56:49.813Z,22.40
2023-04-10T23:59:17.264Z,23.52
